Data for 11/28/2005

Time Sea-Level Adjusted Pressure Absolute Pressure Temperature Relative Humidity Dew Point   
(mb) (inHg) (mb) (inHg) (C) (F) (%) (C) (F)
00:05 1021 30.15 850 25.1 -5.5 22.1 94 -6.3 20.7
00:10 1021 30.15 850 25.1 -5.6 21.9 95 -6.3 20.6
00:15 1021 30.15 850 25.1 -5.6 21.9 95 -6.3 20.6
00:20 1021 30.15 850 25.1 -5.6 22 95 -6.3 20.7
00:25 1021 30.15 850 25.1 -5.6 21.9 95 -6.3 20.7
00:30 1021 30.15 850 25.1 -5.6 21.9 95 -6.3 20.7
00:35 1021 30.15 850 25.1 -5.6 21.9 95 -6.3 20.7
00:40 1021 30.15 850 25.1 -5.5 22.1 94 -6.3 20.7
00:45 1021 30.15 850 25.1 -5.5 22.1 94 -6.3 20.6
00:50 1021 30.15 850 25.1 -5.5 22.2 94 -6.4 20.6
00:55 1021 30.15 850 25.1 -5.5 22.1 93 -6.4 20.5
01:00 1021 30.15 850 25.1 -5.5 22.1 94 -6.4 20.5
01:05 1021 30.15 850 25.1 -5.4 22.2 94 -6.3 20.7
01:10 1021 30.15 850 25.1 -5.4 22.2 94 -6.3 20.6
01:15 1021 30.15 850 25.1 -5.5 22.2 94 -6.3 20.7
01:20 1021 30.15 850 25.1 -5.5 22.2 94 -6.3 20.6
01:25 1021 30.15 850 25.1 -5.5 22.1 94 -6.4 20.5
01:30 1021 30.15 850 25.1 -5.5 22.1 94 -6.4 20.5
01:35 1021 30.15 850 25.1 -5.6 21.9 95 -6.3 20.7
01:40 1021 30.15 850 25.1 -5.5 22.1 94 -6.3 20.7
01:45 1021 30.15 850 25.1 -5.5 22.1 95 -6.3 20.7
01:50 1021 30.15 850 25.1 -5.5 22.2 94 -6.2 20.8
01:55 1021 30.15 850 25.1 -5.5 22.1 94 -6.3 20.7
02:00 1021 30.15 850 25.1 -5.5 22.2 94 -6.3 20.7
02:05 1021 30.15 850 25.1 -5.5 22.1 94 -6.2 20.8
02:10 1021 30.15 850 25.1 -5.4 22.2 94 -6.2 20.8
02:15 1021 30.15 850 25.1 -5.4 22.2 94 -6.3 20.7
02:20 1021 30.15 850 25.1 -5.5 22.1 94 -6.4 20.6
02:25 1021 30.15 850 25.1 -5.5 22.1 94 -6.3 20.6
02:30 1021 30.15 850 25.1 -5.4 22.2 94 -6.3 20.7
02:35 1021 30.15 850 25.1 -5.5 22.2 93 -6.4 20.5
02:40 1021 30.15 850 25.1 -5.5 22.2 93 -6.5 20.4
02:45 1021 30.15 850 25.1 -5.5 22.1 93 -6.5 20.3
02:50 1021 30.15 850 25.1 -5.5 22.1 92 -6.6 20.1
02:55 1021 30.15 850 25.1 -5.5 22 92 -6.6 20.1
03:00 1021 30.15 850 25.1 -5.6 21.9 92 -6.8 19.8
03:05 1021 30.15 850 25.1 -5.6 21.8 92 -6.8 19.8
03:10 1021 30.15 850 25.1 -5.7 21.8 92 -6.8 19.7
03:15 1021 30.15 850 25.1 -5.7 21.7 91 -7 19.4
03:20 1021 30.15 850 25.1 -5.8 21.6 91 -7 19.5
03:25 1021 30.15 850 25.1 -5.7 21.7 91 -7 19.5
03:30 1021 30.15 850 25.1 -5.6 21.8 90 -7 19.3
03:35 1021 30.15 850 25.1 -5.7 21.7 90 -7.1 19.2
03:40 1021 30.15 850 25.1 -5.8 21.5 90 -7.2 19
03:45 1021 30.15 850 25.1 -5.7 21.7 90 -7.1 19.2
03:50 1021 30.15 850 25.1 -5.7 21.7 90 -7.1 19.2
03:55 1021 30.15 850 25.1 -5.7 21.8 90 -7.2 19.1
04:00 1021 30.15 850 25.1 -5.6 21.8 89 -7.1 19.2
04:05 1021 30.15 850 25.1 -5.7 21.8 90 -7.1 19.2
04:10 1021 30.15 850 25.1 -5.8 21.6 90 -7.1 19.2
04:15 1021 30.15 851 25.13 -5.9 21.3 92 -7.1 19.3
04:20 1021 30.15 851 25.13 -5.9 21.4 92 -7 19.4
04:25 1021 30.15 851 25.13 -5.8 21.6 91 -7 19.3
04:30 1021 30.15 851 25.13 -6 21.1 92 -7.1 19.2
04:35 1021 30.15 851 25.13 -5.9 21.4 92 -7 19.3
04:40 1021 30.15 851 25.13 -5.9 21.3 91 -7.2 19.1
04:45 1021 30.15 851 25.13 -6.1 21 92 -7.3 18.9
04:50 1021 30.15 851 25.13 -6.3 20.7 92 -7.4 18.7
04:55 1021 30.15 851 25.13 -6.2 20.8 92 -7.3 18.9
05:00 1021 30.15 851 25.13 -6.2 20.9 93 -7.1 19.2
05:05 1021 30.15 851 25.13 -6.1 21.1 93 -7.1 19.3
05:10 1021 30.15 851 25.13 -6.1 20.9 93 -7.1 19.3
05:15 1022 30.18 851 25.13 -6 21.1 92 -7.1 19.2
05:20 1022 30.18 851 25.13 -6.1 21 93 -7.1 19.1
05:25 1022 30.18 851 25.13 -6.2 20.9 92 -7.2 19
05:30 1022 30.18 851 25.13 -6.1 21 92 -7.2 19
05:35 1022 30.18 851 25.13 -6 21.1 92 -7.2 19
05:40 1022 30.18 851 25.13 -6 21.2 92 -7.2 19.1
05:45 1022 30.18 851 25.13 -6.1 21.1 92 -7.2 19.1
05:50 1022 30.18 851 25.13 -6 21.3 92 -7.1 19.3
05:55 1022 30.18 851 25.13 -6.1 21 93 -7.1 19.2
06:00 1022 30.18 851 25.13 -6.1 21 93 -7 19.3
06:05 1022 30.18 851 25.13 -6 21.1 93 -7 19.5
06:10 1022 30.18 851 25.13 -6.1 21.1 93 -7 19.4
06:15 1022 30.18 851 25.13 -6.2 20.9 94 -7 19.3
06:20 1022 30.18 851 25.13 -6.4 20.5 94 -7.2 19.1
06:25 1022 30.18 851 25.13 -6.4 20.5 94 -7.2 19
06:30 1022 30.18 851 25.13 -6.4 20.4 94 -7.3 18.9
06:35 1022 30.18 851 25.13 -6.5 20.4 94 -7.3 18.9
06:40 1022 30.18 851 25.13 -6.5 20.4 94 -7.3 18.9
06:45 1022 30.18 851 25.13 -6.6 20.2 94 -7.4 18.7
06:50 1022 30.18 851 25.13 -6.6 20 94 -7.5 18.6
06:55 1022 30.18 851 25.13 -6.7 20 94 -7.5 18.6
07:00 1022 30.18 851 25.13 -6.6 20.2 94 -7.4 18.6
07:05 1022 30.18 852 25.16 -6.5 20.3 94 -7.4 18.7
07:10 1022 30.18 852 25.16 -6.5 20.3 94 -7.4 18.7
07:15 1022 30.18 852 25.16 -6.4 20.4 94 -7.3 18.9
07:20 1022 30.18 852 25.16 -6.4 20.4 93 -7.3 18.8
07:25 1022 30.18 852 25.16 -6.4 20.5 93 -7.3 18.8
07:30 1022 30.18 852 25.16 -6.4 20.5 93 -7.4 18.7
07:35 1022 30.18 852 25.16 -6.4 20.5 93 -7.3 18.8
07:40 1022 30.18 852 25.16 -6.4 20.5 93 -7.3 18.8
07:45 1022 30.18 852 25.16 -6.4 20.5 92 -7.5 18.6
07:50 1022 30.18 852 25.16 -6.3 20.7 92 -7.4 18.7
07:55 1023 30.21 852 25.16 -6.2 20.8 92 -7.4 18.8
08:00 1023 30.21 852 25.16 -6.3 20.7 91 -7.5 18.5
08:05 1023 30.21 852 25.16 -6.2 20.9 90 -7.6 18.3
08:10 1023 30.21 852 25.16 -6.3 20.7 90 -7.6 18.3
08:15 1023 30.21 852 25.16 -6.3 20.6 90 -7.7 18.1
08:20 1023 30.21 852 25.16 -6.3 20.6 90 -7.7 18.1
08:25 1023 30.21 852 25.16 -6.2 20.8 89 -7.7 18.1
08:30 1023 30.21 852 25.16 -6.2 20.9 89 -7.7 18.2
08:35 1022 30.18 852 25.16 -6.2 20.9 88 -7.8 18
08:40 1022 30.18 852 25.16 -6.1 21 89 -7.7 18.1
08:45 1022 30.18 852 25.16 -5.9 21.4 87 -7.7 18.1
08:50 1022 30.18 852 25.16 -6 21.2 88 -7.7 18.1
08:55 1022 30.18 852 25.16 -5.7 21.8 85 -7.9 17.8
09:00 1022 30.18 852 25.16 -5.5 22.2 84 -7.8 17.9
09:05 1022 30.18 852 25.16 -5.5 22.1 84 -7.8 18
09:10 1022 30.18 852 25.16 -5.4 22.3 83 -7.9 17.7
09:15 1022 30.18 852 25.16 -5.6 22 84 -7.8 17.9
09:20 1022 30.18 852 25.16 -5.7 21.8 85 -7.8 18
09:25 1022 30.18 852 25.16 -5.8 21.6 85 -7.9 17.8
09:30 1022 30.18 852 25.16 -5.6 22 84 -7.8 18
09:35 1022 30.18 852 25.16 -5.7 21.8 86 -7.7 18.1
09:40 1022 30.18 852 25.16 -5.6 21.8 85 -7.8 17.9
09:45 1022 30.18 852 25.16 -5.6 21.8 85 -7.8 18
09:50 1023 30.21 852 25.16 -5.5 22.2 84 -7.8 18
09:55 1023 30.21 852 25.16 -5.8 21.5 86 -7.9 17.8
10:00 1023 30.21 852 25.16 -5.9 21.4 85 -7.9 17.7
10:05 1023 30.21 852 25.16 -5.9 21.4 85 -8.1 17.4
10:10 1023 30.21 852 25.16 -5.7 21.7 83 -8.1 17.4
10:15 1023 30.21 852 25.16 -5.7 21.8 83 -8 17.5
10:20 1023 30.21 852 25.16 -5.4 22.4 81 -8.1 17.5
10:25 1023 30.21 852 25.16 -5.5 22.1 82 -8.1 17.4
10:30 1023 30.21 852 25.16 -5.6 22 83 -8.1 17.5
10:35 1023 30.21 852 25.16 -5.5 22.1 82 -8.1 17.4
10:40 1023 30.21 852 25.16 -5.4 22.3 82 -8 17.7
10:45 1023 30.21 852 25.16 -5.3 22.4 83 -7.9 17.8
10:50 1023 30.21 852 25.16 -5.1 22.9 82 -7.8 18
10:55 1023 30.21 852 25.16 -4.9 23.1 80 -7.8 17.9
11:00 1022 30.18 852 25.16 -5.1 22.9 81 -7.9 17.8
11:05 1022 30.18 852 25.16 -4.7 23.6 79 -7.8 18
11:10 1022 30.18 852 25.16 -3.9 24.9 77 -7.3 18.8
11:15 1022 30.18 851 25.13 -3.3 26.1 73 -7.4 18.6
11:20 1022 30.18 851 25.13 -2.6 27.3 69 -7.5 18.5
11:25 1022 30.18 851 25.13 -2.5 27.4 70 -7.3 18.9
11:30 1022 30.18 851 25.13 -3 26.7 72 -7.3 18.8
11:35 1022 30.18 851 25.13 -2.9 26.8 71 -7.4 18.7
11:40 1022 30.18 851 25.13 -3 26.6 71 -7.6 18.3
11:45 1022 30.18 851 25.13 -3.5 25.8 73 -7.7 18.2
11:50 1022 30.18 851 25.13 -3.4 25.9 72 -7.7 18.2
11:55 1022 30.18 851 25.13 -3.3 26.1 73 -7.5 18.5
12:00 1022 30.18 851 25.13 -3 26.6 71 -7.6 18.4
12:05 1022 30.18 851 25.13 -3.1 26.3 70 -7.8 17.9
12:10 1022 30.18 851 25.13 -3.2 26.2 70 -7.9 17.9
12:15 1022 30.18 851 25.13 -3.2 26.2 71 -7.8 18
12:20 1022 30.18 851 25.13 -3.2 26.2 71 -7.7 18.2
12:25 1022 30.18 851 25.13 -3 26.6 69 -7.8 17.9
12:30 1022 30.18 851 25.13 -3 26.6 69 -7.9 17.9
12:35 1022 30.18 851 25.13 -3.1 26.5 68 -8.1 17.5
12:40 1022 30.18 851 25.13 -2.9 26.8 66 -8.4 16.9
12:45 1022 30.18 851 25.13 -3 26.6 67 -8.3 17.1
12:50 1022 30.18 851 25.13 -3.1 26.5 68 -8.1 17.4
12:55 1022 30.18 851 25.13 -3.1 26.4 68 -8.2 17.2
13:00 1022 30.18 851 25.13 -3 26.6 67 -8.3 17
13:05 1022 30.18 851 25.13 -2.9 26.7 69 -7.9 17.7
13:10 1021 30.15 851 25.13 -3 26.6 67 -8.3 17.1
13:15 1021 30.15 850 25.1 -3.6 25.5 71 -8.1 17.4
13:20 1021 30.15 850 25.1 -3.4 25.8 67 -8.6 16.5
13:25 1021 30.15 850 25.1 -3.4 26 67 -8.7 16.3
13:30 1021 30.15 850 25.1 -3 26.6 69 -7.9 17.7
13:35 1021 30.15 850 25.1 -2.5 27.5 64 -8.3 17
13:40 1021 30.15 850 25.1 -1.9 28.6 63 -8 17.6
13:45 1021 30.15 850 25.1 -1.8 28.7 60 -8.7 16.4
13:50 1021 30.15 850 25.1 -2.8 27 67 -8.1 17.4
13:55 1021 30.15 850 25.1 -3.4 25.9 68 -8.4 16.9
14:00 1021 30.15 850 25.1 -3.7 25.3 70 -8.3 17
14:05 1021 30.15 850 25.1 -3.9 25 71 -8.3 17
14:10 1020 30.12 850 25.1 -3.3 26.1 67 -8.6 16.6
14:15 1020 30.12 850 25.1 -3.2 26.2 68 -8.4 17
14:20 1020 30.12 850 25.1 -3.2 26.3 68 -8.3 17.1
14:25 1020 30.12 850 25.1 -2.3 27.9 63 -8.4 17
14:30 1020 30.12 850 25.1 -1.9 28.6 61 -8.4 16.9
14:35 1020 30.12 850 25.1 -2 28.4 62 -8.3 17.1
14:40 1020 30.12 850 25.1 -2.9 26.8 66 -8.4 16.9
14:45 1020 30.12 850 25.1 -3.4 25.9 67 -8.7 16.4
14:50 1020 30.12 849 25.07 -2.8 27 63 -8.8 16.1
14:55 1020 30.12 849 25.07 -2.8 26.9 64 -8.7 16.4
15:00 1020 30.12 849 25.07 -2.6 27.4 62 -8.9 16
15:05 1020 30.12 849 25.07 -3.1 26.4 65 -8.7 16.3
15:10 1020 30.12 849 25.07 -2.9 26.8 65 -8.5 16.7
15:15 1020 30.12 849 25.07 -2.6 27.3 63 -8.7 16.4
15:20 1020 30.12 849 25.07 -3 26.6 67 -8.4 16.9
15:25 1020 30.12 849 25.07 -3.6 25.6 71 -8.2 17.3
15:30 1020 30.12 849 25.07 -4 24.7 72 -8.3 17
15:35 1020 30.12 849 25.07 -4 24.8 72 -8.4 16.8
15:40 1020 30.12 849 25.07 -3.7 25.3 71 -8.3 17
15:45 1020 30.12 849 25.07 -3.8 25.1 70 -8.4 16.8
15:50 1020 30.12 849 25.07 -4 24.7 71 -8.5 16.7
15:55 1020 30.12 849 25.07 -4.3 24.3 73 -8.5 16.7
16:00 1020 30.12 849 25.07 -4.5 23.8 74 -8.5 16.6
16:05 1020 30.12 849 25.07 -4.6 23.6 74 -8.6 16.5
16:10 1020 30.12 849 25.07 -5.2 22.7 77 -8.5 16.6
16:15 1020 30.12 849 25.07 -5.5 22.1 79 -8.5 16.6
16:20 1020 30.12 849 25.07 -5.6 21.9 79 -8.8 16.2
16:25 1020 30.12 849 25.07 -6.2 20.9 82 -8.8 16.2
16:30 1020 30.12 849 25.07 -6.7 20 84 -9 15.9
16:35 1020 30.12 849 25.07 -6.7 20 83 -9.1 15.7
16:40 1020 30.12 849 25.07 -7 19.4 85 -9.2 15.5
16:45 1020 30.12 849 25.07 -7.7 18.1 88 -9.4 15
16:50 1020 30.12 849 25.07 -7.9 17.7 87 -9.7 14.6
16:55 1020 30.12 849 25.07 -7.8 18 85 -9.9 14.2
17:00 1020 30.12 849 25.07 -7.8 17.9 84 -10.1 13.9
17:05 1020 30.12 849 25.07 -8.2 17.2 86 -10.1 13.8
17:10 1020 30.12 849 25.07 -8.2 17.3 85 -10.2 13.6
17:15 1020 30.12 849 25.07 -8 17.5 84 -10.3 13.5
17:20 1020 30.12 849 25.07 -8.3 17.1 86 -10.2 13.6
17:25 1020 30.12 849 25.07 -8.5 16.7 86 -10.5 13.1
17:30 1020 30.12 849 25.07 -8.5 16.6 85 -10.7 12.8
17:35 1020 30.12 849 25.07 -8.7 16.4 84 -10.9 12.5
17:40 1019 30.09 849 25.07 -8.9 16 86 -10.8 12.5
17:45 1019 30.09 849 25.07 -9 15.9 86 -10.9 12.3
17:50 1019 30.09 848 25.04 -8.8 16.1 84 -11.1 12.1
17:55 1019 30.09 848 25.04 -8.9 16 85 -11 12.2
18:00 1019 30.09 849 25.07 -8.9 16 84 -11.1 12.1
18:05 1019 30.09 848 25.04 -9.1 15.6 84 -11.3 11.7
18:10 1019 30.09 848 25.04 -9.5 15 85 -11.6 11.2
18:15 1019 30.09 848 25.04 -9.5 14.8 86 -11.5 11.3
18:20 1019 30.09 848 25.04 -9.9 14.3 87 -11.7 11
18:25 1019 30.09 848 25.04 -10.1 13.8 87 -11.9 10.6
18:30 1019 30.09 848 25.04 -10.8 12.6 84 -13 8.7
18:35 1019 30.09 848 25.04 -11.6 11.1 88 -13.2 8.2
18:40 1019 30.09 848 25.04 -11.9 10.6 91 -13.1 8.3
18:45 1019 30.09 848 25.04 -11.8 10.8 90 -13.1 8.4
18:50 1019 30.09 848 25.04 -11.7 10.9 89 -13.2 8.3
18:55 1019 30.09 848 25.04 -11.5 11.3 89 -13 8.6
19:00 1019 30.09 848 25.04 -11.1 11.9 88 -12.8 8.9
19:05 1019 30.09 848 25.04 -10.8 12.5 87 -12.7 9.2
19:10 1019 30.09 848 25.04 -10.7 12.8 86 -12.6 9.4
19:15 1019 30.09 848 25.04 -10.7 12.7 85 -12.8 9
19:20 1018 30.06 848 25.04 -10.9 12.4 87 -12.7 9.2
19:25 1018 30.06 848 25.04 -10.8 12.6 87 -12.6 9.3
19:30 1018 30.06 847 25.01 -10.8 12.5 85 -12.8 9
19:35 1018 30.06 847 25.01 -11.1 12.1 86 -13 8.6
19:40 1018 30.06 847 25.01 -11.3 11.6 88 -13 8.6
19:45 1018 30.06 847 25.01 -11.2 11.8 87 -12.9 8.7
19:50 1018 30.06 847 25.01 -11 12.2 87 -12.8 9
19:55 1018 30.06 847 25.01 -10.9 12.5 86 -12.7 9.1
20:00 1018 30.06 847 25.01 -10.8 12.6 87 -12.6 9.4
20:05 1018 30.06 847 25.01 -10.6 12.9 86 -12.5 9.6
20:10 1018 30.06 847 25.01 -10.5 13.1 86 -12.4 9.7
20:15 1018 30.06 847 25.01 -10.3 13.4 85 -12.3 9.8
20:20 1018 30.06 847 25.01 -10.3 13.5 85 -12.4 9.8
20:25 1018 30.06 847 25.01 -10.3 13.4 85 -12.4 9.7
20:30 1018 30.06 847 25.01 -10.3 13.4 85 -12.4 9.7
20:35 1018 30.06 847 25.01 -10.5 13.1 85 -12.6 9.3
20:40 1018 30.06 847 25.01 -10.7 12.7 84 -12.9 8.7
20:45 1018 30.06 847 25.01 -11 12.3 85 -13.1 8.5
20:50 1018 30.06 847 25.01 -10.9 12.4 86 -12.9 8.8
20:55 1018 30.06 847 25.01 -10.6 12.9 84 -12.8 9
21:00 1018 30.06 847 25.01 -10.6 12.9 84 -12.8 9
21:05 1018 30.06 847 25.01 -10.6 12.8 84 -12.8 8.9
21:10 1018 30.06 847 25.01 -10.7 12.8 83 -13 8.6
21:15 1018 30.06 847 25.01 -10.8 12.5 83 -13.1 8.4
21:20 1018 30.06 847 25.01 -11 12.3 84 -13.2 8.2
21:25 1017 30.03 847 25.01 -10.9 12.4 83 -13.2 8.2
21:30 1017 30.03 847 25.01 -10.7 12.7 84 -13 8.6
21:35 1017 30.03 847 25.01 -10.4 13.3 82 -12.8 8.9
21:40 1017 30.03 847 25.01 -10.1 13.9 82 -12.6 9.2
21:45 1017 30.03 847 25.01 -10.1 13.9 81 -12.7 9.2
21:50 1018 30.06 847 25.01 -10.1 13.9 81 -12.7 9.1
21:55 1018 30.06 847 25.01 -10.2 13.7 81 -12.9 8.9
22:00 1018 30.06 847 25.01 -10.3 13.4 82 -12.9 8.8
22:05 1017 30.03 847 25.01 -10.3 13.6 82 -12.8 8.9
22:10 1017 30.03 847 25.01 -10.2 13.6 81 -12.8 8.9
22:15 1017 30.03 847 25.01 -10.1 13.8 81 -12.8 8.9
22:20 1017 30.03 847 25.01 -10.3 13.4 82 -12.9 8.9
22:25 1017 30.03 847 25.01 -10.5 13.1 82 -13 8.6
22:30 1017 30.03 847 25.01 -10.3 13.4 81 -13 8.6
22:35 1017 30.03 847 25.01 -10.8 12.7 83 -13 8.5
22:40 1017 30.03 846 24.98 -10.7 12.8 83 -13 8.6
22:45 1017 30.03 846 24.98 -10.2 13.7 82 -12.7 9.2
22:50 1017 30.03 846 24.98 -10.6 12.9 81 -13.2 8.2
22:55 1017 30.03 846 24.98 -11.5 11.3 86 -13.4 7.9
23:00 1017 30.03 846 24.98 -11.5 11.2 85 -13.6 7.5
23:05 1017 30.03 846 24.98 -11.5 11.4 84 -13.7 7.3
23:10 1017 30.03 846 24.98 -11.2 11.8 82 -13.6 7.5
23:15 1017 30.03 847 25.01 -11.3 11.7 84 -13.5 7.7
23:20 1017 30.03 846 24.98 -11.2 11.8 84 -13.4 8
23:25 1017 30.03 846 24.98 -11.5 11.2 83 -13.9 7
23:30 1017 30.03 846 24.98 -12.4 9.6 85 -14.5 5.8
23:35 1017 30.03 846 24.98 -12.6 9.4 85 -14.5 5.9
23:40 1017 30.03 846 24.98 -12.5 9.5 87 -14.3 6.3
23:45 1017 30.03 846 24.98 -12.4 9.7 86 -14.3 6.3
23:50 1017 30.03 846 24.98 -12.5 9.5 87 -14.3 6.3
23:55 1017 30.03 846 24.98 -12.4 9.7 86 -14.2 6.4
24:00 1017 30.03 846 24.98 -12.3 9.9 87 -14.1 6.7